Point Baker, Alaska
Current Conditions -  °F | °C
As of 9:56 PM on Tuesday 25 Nov 2014 (Local Time) from PAPG Reporting Station
Light Fog Light Fog  
Wind Chill: 36°   Ceiling: 2900
Heat Index: 36°   Visibility: 7mi
Dew Point: 34°   Wind: 3mph
Humidity: 93%   Direction: 250°WSW
Pressure: 30.19"   Gusts: NA
Location:  56.35°N, 133.61°W
Report Text: PAPG 260656Z 25003KT 7SM BCFG SCT002 BKN029 OVC045 02/01 A3019
Loading
Personal Weather Stations






























Interactive Weather Map New forecast layout! Learn more

10-Day Weather Forecast

Advertisements
Track Severe Weather on mobile